Observation data for Memphis on 02/22/2019      Previous  Date  Next       Current Mesonet Observations  Soil Data  Daily Summary Page  Observations in Plain Language
KMES 220600Z 08006KT 02/M00 A2995 RMK A01 T00201004  RH  085%=      5-min Rain = 0
KMES 220605Z 08006KT 02/M00 A2995 RMK A01 T00191004  RH  086%=      5-min Rain = 0
KMES 220610Z 08005KT 02/M00 A2995 RMK A01 T00181003  RH  087%=      5-min Rain = 0
KMES 220615Z 07005KT 02/M00 A2995 RMK A01 T00181002  RH  088%=      5-min Rain = 0
KMES 220620Z 06004KT 02/M00 A2995 RMK A01 T00171002  RH  088%=      5-min Rain = 0
KMES 220625Z 04003KT 02/M00 A2996 RMK A01 T00161003  RH  088%=      5-min Rain = 0
KMES 220630Z 05004KT 02/M00 A2996 RMK A01 T00151002  RH  089%=      5-min Rain = 0
KMES 220635Z 05005KT 01/M00 A2996 RMK A01 T00141003  RH  090%=      5-min Rain = 0
KMES 220640Z 05005KT 01/M00 A2996 RMK A01 T00121003  RH  090%=      5-min Rain = 0
KMES 220645Z 06004KT 01/M00 A2996 RMK A01 T00131001  RH  091%=      5-min Rain = 0
KMES 220650Z 08004KT 01/00 A2996 RMK A01 T00130000  RH  092%=      5-min Rain = 0
KMES 220655Z 08005KT 01/00 A2996 RMK A01 T00130001  RH  093%=      5-min Rain = 0
KMES 220700Z 08005KT 01/00 A2997 RMK A01 T00120000  RH  093%=      5-min Rain = 0
KMES 220705Z 07005KT 01/00 A2997 RMK A01 T001100-0  RH  093%=      5-min Rain = 0
KMES 220710Z 07005KT 01/00 A2997 RMK A01 T00110001  RH  094%=      5-min Rain = 0
KMES 220715Z 07005KT 01/00 A2997 RMK A01 T00110001  RH  095%=      5-min Rain = 0
KMES 220720Z 08006KT 01/00 A2997 RMK A01 T00120004  RH  096%=      5-min Rain = 0
KMES 220725Z 08005KT 02/01 A2997 RMK A01 T00150008  RH  096%=      5-min Rain = 0
KMES 220730Z 08006KT 02/01 A2997 RMK A01 T00180011  RH  096%=      5-min Rain = 0
KMES 220735Z 08007KT 02/01 A2997 RMK A01 T00200013  RH  096%=      5-min Rain = 0
KMES 220740Z 08007KT 02/01 A2997 RMK A01 T00210013  RH  096%=      5-min Rain = 0
KMES 220745Z 08007KT 02/01 A2997 RMK A01 T00210014  RH  097%=      5-min Rain = 0
KMES 220750Z 09008KT 02/02 A2997 RMK A01 T00210015  RH  097%=      5-min Rain = 0
KMES 220755Z 09008KT 02/02 A2997 RMK A01 T00220016  RH  098%=      5-min Rain = 0
KMES 220800Z 09008G13KT 02/02 A2997 RMK A01 T00230017  RH  098%=      5-min Rain = 0
KMES 220805Z 09008KT 02/02 A2997 RMK A01 T00240019  RH  098%=      5-min Rain = 0
KMES 220810Z 09009G14KT 02/02 A2997 RMK A01 T00240019  RH  098%=      5-min Rain = 0
KMES 220815Z 09006KT 02/02 A2998 RMK A01 T00240019  RH  098%=      5-min Rain = 0
KMES 220820Z 09007G12KT 02/02 A2998 RMK A01 T00240019  RH  099%=      5-min Rain = 0
KMES 220825Z 09007KT 02/02 A2998 RMK A01 T00240020  RH  099%=      5-min Rain = 0
KMES 220830Z 09009G14KT 02/02 A2997 RMK A01 T00240021  RH  099%=      5-min Rain = 0
KMES 220835Z 09010G16KT 03/02 A2997 RMK A01 T00250021  RH  099%=      5-min Rain = 0
KMES 220840Z 10010KT 03/02 A2997 RMK A01 T00250022  RH  099%=      5-min Rain = 0
KMES 220845Z 09008KT 03/02 A2997 RMK A01 T00250022  RH  099%=      5-min Rain = 0
KMES 220850Z 09008KT 03/02 A2997 RMK A01 T00250022  RH  100%=      5-min Rain = 0
KMES 220855Z 09010G15KT 03/02 A2997 RMK A01 T00250022  RH  100%=      5-min Rain = 0
KMES 220900Z 09008KT 03/02 A2997 RMK A01 T00250022  RH  100%=      5-min Rain = 0
KMES 220905Z 10008G13KT 03/02 A2997 RMK A01 T00250022  RH  100%=      5-min Rain = 0
KMES 220910Z 10007KT 03/02 A2997 RMK A01 T00250022  RH  100%=      5-min Rain = 0
KMES 220915Z 10006KT 03/02 A2997 RMK A01 T00250023  RH  100%=      5-min Rain = 0
KMES 220920Z 10006KT 03/02 A2997 RMK A01 T00250023  RH  100%=      5-min Rain = 0
KMES 220925Z 09006KT 03/02 A2997 RMK A01 T00250023  RH  100%=      5-min Rain = 0
KMES 220930Z 08005KT 03/02 A2997 RMK A01 T00250023  RH  100%=      5-min Rain = 0
KMES 220935Z 08005KT 03/02 A2997 RMK A01 T00250023  RH  100%=      5-min Rain = 0
KMES 220940Z 07004KT 03/02 A2997 RMK A01 T00250023  RH  100%=      5-min Rain = 0
KMES 220945Z 08005KT 03/02 A2997 RMK A01 T00250023  RH  100%=      5-min Rain = 0
KMES 220950Z 06003KT 03/02 A2997 RMK A01 T00250023  RH  100%=      5-min Rain = 0
KMES 220955Z 05003KT 03/02 A2997 RMK A01 T00250023  RH  100%=      5-min Rain = 0
KMES 221000Z 06004KT 03/02 A2997 RMK A01 T00250023  RH  100%=      5-min Rain = 0
KMES 221005Z 06003KT 03/02 A2997 RMK A01 T00250023  RH  100%=      5-min Rain = 0
KMES 221010Z 06004KT 03/02 A2997 RMK A01 T00250023  RH  100%=      5-min Rain = 0
KMES 221015Z 07003KT 03/02 A2997 RMK A01 T00250023  RH  100%=      5-min Rain = 0
KMES 221020Z 09004KT 03/02 A2998 RMK A01 T00250023  RH  100%=      5-min Rain = 0
KMES 221025Z 09003KT 03/02 A2998 RMK A01 T00250023  RH  100%=      5-min Rain = 0
KMES 221030Z 08002KT 03/02 A2998 RMK A01 T00260024  RH  100%=      5-min Rain = 0
KMES 221035Z 07003KT 03/02 A2998 RMK A01 T00260024  RH  100%=      5-min Rain = 0
KMES 221040Z 06004KT 03/02 A2998 RMK A01 T00260024  RH  100%=      5-min Rain = 0
KMES 221045Z 07004KT 03/02 A2997 RMK A01 T00260024  RH  100%=      5-min Rain = 0
KMES 221050Z 04005KT 03/02 A2997 RMK A01 T00260024  RH  100%=      5-min Rain = 0
KMES 221055Z 04006KT 03/02 A2997 RMK A01 T00260024  RH  100%=      5-min Rain = 0
KMES 221100Z 04006KT 03/02 A2997 RMK A01 T00250023  RH  100%=      5-min Rain = 0
KMES 221105Z 05006KT 03/02 A2997 RMK A01 T00250022  RH  100%=      5-min Rain = 0
KMES 221110Z 05005KT 02/02 A2997 RMK A01 T00240022  RH  100%=      5-min Rain = 0
KMES 221115Z 04005KT 02/02 A2997 RMK A01 T00240022  RH  100%=      5-min Rain = 0
KMES 221120Z 03004KT 02/02 A2998 RMK A01 T00240022  RH  100%=      5-min Rain = 0
KMES 221125Z 03004KT 02/02 A2998 RMK A01 T00240022  RH  100%=      5-min Rain = 0
KMES 221130Z 03004KT 02/02 A2998 RMK A01 T00240022  RH  100%=      5-min Rain = 0
KMES 221135Z 02005KT 02/02 A2998 RMK A01 T00240022  RH  100%=      5-min Rain = 0
KMES 221140Z 01004KT 03/02 A2998 RMK A01 T00250023  RH  100%=      5-min Rain = 0
KMES 221145Z 02005KT 03/02 A2998 RMK A01 T00250023  RH  100%=      5-min Rain = 0
KMES 221150Z 02005KT 03/02 A2998 RMK A01 T00250023  RH  100%=      5-min Rain = 0
KMES 221155Z 01005KT 03/02 A2998 RMK A01 T00250023  RH  100%=      5-min Rain = 0
KMES 221200Z 02005KT 03/02 A2997 RMK A01 T00260023  RH  100%=      5-min Rain = 0
KMES 221205Z 02005KT 03/02 A2997 RMK A01 T00260024  RH  100%=      5-min Rain = 0
KMES 221210Z 04004KT 03/02 A2998 RMK A01 T00260024  RH  100%=      5-min Rain = 0
KMES 221215Z 07002KT 03/02 A2998 RMK A01 T00270024  RH  100%=      5-min Rain = 0
KMES 221220Z 07003KT 03/03 A2999 RMK A01 T00270025  RH  100%=      5-min Rain = 0
KMES 221225Z 06003KT 03/03 A2999 RMK A01 T00280025  RH  100%=      5-min Rain = 0
KMES 221230Z 05004KT 03/03 A2999 RMK A01 T00280026  RH  100%=      5-min Rain = 0
KMES 221235Z 06004KT 03/03 A2999 RMK A01 T00290027  RH  100%=      5-min Rain = 0
KMES 221240Z 06005KT 03/03 A2999 RMK A01 T00300027  RH  100%=      5-min Rain = 0
KMES 221245Z 07005KT 03/03 A2999 RMK A01 T00300028  RH  100%=      5-min Rain = 0
KMES 221250Z 08004KT 03/03 A2999 RMK A01 T00300028  RH  100%=      5-min Rain = 0
KMES 221255Z 08005KT 03/03 A2999 RMK A01 T00310028  RH  100%=      5-min Rain = 0
KMES 221300Z 08005KT 03/03 A2999 RMK A01 T00310029  RH  100%=      5-min Rain = 0
KMES 221305Z 07005KT 03/03 A2998 RMK A01 T00310029  RH  100%=      5-min Rain = 0
KMES 221310Z 07005KT 03/03 A2998 RMK A01 T00320029  RH  100%=      5-min Rain = 0
KMES 221315Z 07006KT 03/03 A2998 RMK A01 T00320030  RH  100%=      5-min Rain = 0
KMES 221320Z 08006KT 03/03 A2998 RMK A01 T00330030  RH  100%=      5-min Rain = 0
KMES 221325Z 09005G10KT 03/03 A2998 RMK A01 T00330031  RH  100%=      5-min Rain = 0
KMES 221330Z 09006KT 03/03 A2998 RMK A01 T00340031  RH  100%=      5-min Rain = 0
KMES 221335Z 09005KT 03/03 A2999 RMK A01 T00340032  RH  100%=      5-min Rain = 0
KMES 221340Z 09005KT 03/03 A2999 RMK A01 T00340032  RH  100%=      5-min Rain = 0
KMES 221345Z 09004KT 04/03 A2999 RMK A01 T00350032  RH  100%=      5-min Rain = 0
KMES 221350Z 09004KT 03/03 A2999 RMK A01 T00340032  RH  100%=      5-min Rain = 0
KMES 221355Z 08006KT 04/03 A2999 RMK A01 T00350032  RH  100%=      5-min Rain = 0
KMES 221400Z 10006KT 04/03 A2999 RMK A01 T00350032  RH  100%=      5-min Rain = 0
KMES 221405Z 09006KT 04/03 A2999 RMK A01 T00350032  RH  100%=      5-min Rain = 0
KMES 221410Z 08008KT 04/03 A2999 RMK A01 T00350032  RH  100%=      5-min Rain = 0
KMES 221415Z 10007KT 04/03 A30 RMK A01 T00350032  RH  100%=      5-min Rain = 0
KMES 221420Z 10007KT 04/03 A30 RMK A01 T00350033  RH  100%=      5-min Rain = 0
KMES 221425Z 10005KT 04/03 A3001 RMK A01 T00360033  RH  100%=      5-min Rain = 0
KMES 221430Z 09006KT 04/03 A3001 RMK A01 T00360033  RH  100%=      5-min Rain = 0
KMES 221435Z 09006KT 04/03 A3001 RMK A01 T00360034  RH  100%=      5-min Rain = 0
KMES 221440Z 09006KT 04/03 A3001 RMK A01 T00370034  RH  100%=      5-min Rain = 0
KMES 221445Z 09006KT 04/04 A3001 RMK A01 T00370035  RH  100%=      5-min Rain = 0
KMES 221450Z 08007KT 04/04 A30 RMK A01 T00380035  RH  100%=      5-min Rain = 0
KMES 221455Z 09007KT 04/04 A30 RMK A01 T00380035  RH  100%=      5-min Rain = 0
KMES 221500Z 09007KT 04/04 A30 RMK A01 T00390036  RH  100%=      5-min Rain = 0
KMES 221505Z 09007KT 04/04 A30 RMK A01 T00390037  RH  100%=      5-min Rain = 0
KMES 221510Z 10008KT 04/04 A3001 RMK A01 T00390037  RH  100%=      5-min Rain = 0
KMES 221515Z 10006KT 04/04 A3001 RMK A01 T00400037  RH  100%=      5-min Rain = 0
KMES 221520Z 11006KT 04/04 A3001 RMK A01 T00400038  RH  100%=      5-min Rain = 0
KMES 221525Z 11007KT 04/04 A3001 RMK A01 T00410039  RH  100%=      5-min Rain = 0
KMES 221530Z 11007KT 04/04 A3001 RMK A01 T00420039  RH  100%=      5-min Rain = 0
KMES 221535Z 11006KT 04/04 A3001 RMK A01 T00420040  RH  100%=      5-min Rain = 0
KMES 221540Z 10006KT 04/04 A3001 RMK A01 T00430040  RH  100%=      5-min Rain = 0
KMES 221545Z 11004KT 04/04 A3001 RMK A01 T00440041  RH  100%=      5-min Rain = 0
KMES 221550Z 11005KT 04/04 A3001 RMK A01 T00440041  RH  100%=      5-min Rain = 0
KMES 221555Z 10005KT 04/04 A3001 RMK A01 T00440041  RH  100%=      5-min Rain = 0
KMES 221600Z 10005KT 04/04 A3001 RMK A01 T00430041  RH  100%=      5-min Rain = 0
KMES 221605Z 10005KT 04/04 A30 RMK A01 T00440041  RH  100%=      5-min Rain = 0
KMES 221610Z 09004KT 05/04 A30 RMK A01 T00450042  RH  100%=      5-min Rain = 0
KMES 221615Z 08005KT 05/04 A30 RMK A01 T00450042  RH  100%=      5-min Rain = 0
KMES 221620Z 09004KT 05/04 A30 RMK A01 T00450042  RH  100%=      5-min Rain = 0
KMES 221625Z 09004KT 05/04 A30 RMK A01 T00460043  RH  100%=      5-min Rain = 0
KMES 221630Z 10003KT 05/04 A30 RMK A01 T00460043  RH  100%=      5-min Rain = 0
KMES 221635Z 10004KT 05/04 A30 RMK A01 T00460043  RH  100%=      5-min Rain = 0
KMES 221640Z 08003KT 05/04 A30 RMK A01 T00460043  RH  100%=      5-min Rain = 0
KMES 221645Z 09002KT 05/04 A30 RMK A01 T00470044  RH  100%=      5-min Rain = 0
KMES 221650Z 11003KT 05/05 A30 RMK A01 T00480045  RH  100%=      5-min Rain = 0
KMES 221655Z 09003KT 05/04 A30 RMK A01 T00470044  RH  100%=      5-min Rain = 0
KMES 221700Z 06003KT 05/05 A2999 RMK A01 T00480045  RH  100%=      5-min Rain = 0
KMES 221705Z 06004KT 05/05 A2999 RMK A01 T00480045  RH  100%=      5-min Rain = 0
KMES 221710Z 06004KT 05/05 A2999 RMK A01 T00480045  RH  100%=      5-min Rain = 0
KMES 221715Z 07004KT 05/05 A2999 RMK A01 T00480045  RH  100%=      5-min Rain = 0
KMES 221720Z 08004KT 05/05 A2999 RMK A01 T00500047  RH  100%=      5-min Rain = 0
KMES 221725Z 08004KT 05/05 A2999 RMK A01 T00490046  RH  100%=      5-min Rain = 0
KMES 221730Z 10002KT 05/05 A2999 RMK A01 T00490046  RH  100%=      5-min Rain = 0
KMES 221735Z 11003KT 05/05 A2999 RMK A01 T00500047  RH  100%=      5-min Rain = 0
KMES 221740Z 10003KT 05/05 A2999 RMK A01 T00500047  RH  100%=      5-min Rain = 0
KMES 221745Z 10004KT 05/05 A2999 RMK A01 T00510048  RH  100%=      5-min Rain = 0
KMES 221750Z 10003KT 05/05 A2999 RMK A01 T00500047  RH  100%=      5-min Rain = 0
KMES 221755Z 11003KT 05/05 A2999 RMK A01 T00520049  RH  100%=      5-min Rain = 0
KMES 221800Z 09005KT 05/05 A2999 RMK A01 T00520049  RH  100%=      5-min Rain = 0
KMES 221805Z 10004KT 05/05 A2999 RMK A01 T00530049  RH  100%=      5-min Rain = 0
KMES 221810Z 10003KT 05/05 A2999 RMK A01 T00530050  RH  100%=      5-min Rain = 0
KMES 221815Z 10004KT 05/05 A2998 RMK A01 T00530050  RH  100%=      5-min Rain = 0.01
KMES 221820Z 10003KT 05/05 A2998 RMK A01 T00520049  RH  100%=      5-min Rain = 0
KMES 221825Z 09003KT 05/05 A2998 RMK A01 T00540051  RH  100%=      5-min Rain = 0
KMES 221830Z 09004KT 06/05 A2997 RMK A01 T00550052  RH  100%=      5-min Rain = 0
KMES 221835Z 08004KT 06/05 A2997 RMK A01 T00550051  RH  100%=      5-min Rain = 0
KMES 221840Z 09003KT 06/05 A2996 RMK A01 T00550052  RH  100%=      5-min Rain = 0
KMES 221845Z 07004KT 06/05 A2996 RMK A01 T00570054  RH  100%=      5-min Rain = 0
KMES 221850Z 07004KT 06/05 A2995 RMK A01 T00570053  RH  100%=      5-min Rain = 0
KMES 221855Z 06005KT 06/05 A2995 RMK A01 T00570054  RH  100%=      5-min Rain = 0
KMES 221900Z 07004KT 06/05 A2994 RMK A01 T00570054  RH  100%=      5-min Rain = 0
KMES 221905Z 07005KT 06/06 A2994 RMK A01 T00580055  RH  100%=      5-min Rain = 0
KMES 221910Z 07005KT 06/06 A2993 RMK A01 T00590055  RH  100%=      5-min Rain = 0
KMES 221915Z 06004KT 06/06 A2993 RMK A01 T00590055  RH  100%=      5-min Rain = 0
KMES 221920Z 08005KT 06/06 A2993 RMK A01 T00600056  RH  100%=      5-min Rain = 0
KMES 221925Z 07004KT 06/06 A2993 RMK A01 T00610057  RH  100%=      5-min Rain = 0
KMES 221930Z 08004KT 06/06 A2992 RMK A01 T00610056  RH  099%=      5-min Rain = 0
KMES 221935Z 07003KT 06/06 A2992 RMK A01 T00610056  RH  099%=      5-min Rain = 0
KMES 221940Z 05002KT 06/06 A2991 RMK A01 T00620057  RH  099%=      5-min Rain = 0
KMES 221945Z 09003KT 06/06 A2991 RMK A01 T00630058  RH  099%=      5-min Rain = 0
KMES 221950Z 07003KT 07/06 A2991 RMK A01 T00660061  RH  099%=      5-min Rain = 0
KMES 221955Z 10003KT 07/06 A2991 RMK A01 T00670061  RH  098%=      5-min Rain = 0
KMES 222000Z 10004KT 07/06 A2991 RMK A01 T00670060  RH  098%=      5-min Rain = 0
KMES 222005Z 09003KT 07/06 A299 RMK A01 T00670060  RH  098%=      5-min Rain = 0
KMES 222010Z 07003KT 07/06 A299 RMK A01 T00670060  RH  097%=      5-min Rain = 0
KMES 222015Z 09003KT 07/06 A2989 RMK A01 T00670060  RH  097%=      5-min Rain = 0
KMES 222020Z 09004KT 07/06 A2989 RMK A01 T00690061  RH  097%=      5-min Rain = 0
KMES 222025Z 09003KT 07/06 A2989 RMK A01 T00700061  RH  097%=      5-min Rain = 0
KMES 222030Z 07005KT 07/06 A2989 RMK A01 T00690060  RH  096%=      5-min Rain = 0
KMES 222035Z 09005KT 07/06 A2989 RMK A01 T00700060  RH  096%=      5-min Rain = 0
KMES 222040Z 10005KT 07/06 A2989 RMK A01 T00690060  RH  096%=      5-min Rain = 0
KMES 222045Z 11005KT 07/06 A2989 RMK A01 T00700060  RH  096%=      5-min Rain = 0
KMES 222050Z 10006KT 07/06 A2988 RMK A01 T00700060  RH  096%=      5-min Rain = 0
KMES 222055Z 09005KT 07/06 A2988 RMK A01 T00690059  RH  095%=      5-min Rain = 0
KMES 222100Z 10006G11KT 07/06 A2988 RMK A01 T00700060  RH  095%=      5-min Rain = 0
KMES 222105Z 08007KT 07/06 A2988 RMK A01 T00680057  RH  095%=      5-min Rain = 0
KMES 222110Z 08007KT 07/06 A2988 RMK A01 T00660056  RH  096%=      5-min Rain = 0
KMES 222115Z 09007KT 07/06 A2988 RMK A01 T00650056  RH  096%=      5-min Rain = 0
KMES 222120Z 10005KT 07/06 A2989 RMK A01 T00650057  RH  097%=      5-min Rain = 0
KMES 222125Z 09006KT 07/06 A2989 RMK A01 T00650057  RH  097%=      5-min Rain = 0
KMES 222130Z 10006KT 06/06 A2989 RMK A01 T00640056  RH  097%=      5-min Rain = 0
KMES 222135Z 10007KT 06/06 A2989 RMK A01 T00640056  RH  097%=      5-min Rain = 0
KMES 222140Z 11005KT 06/06 A2989 RMK A01 T00640057  RH  097%=      5-min Rain = 0
KMES 222145Z 10006KT 06/06 A2989 RMK A01 T00640057  RH  097%=      5-min Rain = 0
KMES 222150Z 11007KT 06/06 A2989 RMK A01 T00630056  RH  098%=      5-min Rain = 0
KMES 222155Z 11006KT 06/06 A2988 RMK A01 T00630056  RH  098%=      5-min Rain = 0
KMES 222200Z 11006KT 06/06 A2988 RMK A01 T00630056  RH  098%=      5-min Rain = 0
KMES 222205Z 11007KT 06/06 A2988 RMK A01 T00620056  RH  098%=      5-min Rain = 0
KMES 222210Z 10006KT 06/06 A2988 RMK A01 T00630057  RH  098%=      5-min Rain = 0
KMES 222215Z 10007KT 06/06 A2988 RMK A01 T00620057  RH  098%=      5-min Rain = 0
KMES 222220Z 11008KT 06/06 A2988 RMK A01 T00620056  RH  098%=      5-min Rain = 0
KMES 222225Z 11008KT 06/06 A2988 RMK A01 T00620056  RH  099%=      5-min Rain = 0
KMES 222230Z 11008G13KT 06/06 A2988 RMK A01 T00620057  RH  099%=      5-min Rain = 0
KMES 222235Z 10007KT 06/06 A2988 RMK A01 T00620057  RH  099%=      5-min Rain = 0
KMES 222240Z 10006KT 06/06 A2988 RMK A01 T00620057  RH  099%=      5-min Rain = 0
KMES 222245Z 10006KT 06/06 A2988 RMK A01 T00620057  RH  099%=      5-min Rain = 0
KMES 222250Z 11007KT 06/06 A2988 RMK A01 T00620057  RH  099%=      5-min Rain = 0
KMES 222255Z 11006KT 06/06 A2988 RMK A01 T00620057  RH  099%=      5-min Rain = 0
KMES 222300Z 10007KT 06/06 A2988 RMK A01 T00620057  RH  099%=      5-min Rain = 0
KMES 222305Z 10006KT 06/06 A2987 RMK A01 T00610057  RH  099%=      5-min Rain = 0
KMES 222310Z 11007KT 06/06 A2987 RMK A01 T00610057  RH  099%=      5-min Rain = 0
KMES 222315Z 11007KT 06/06 A2987 RMK A01 T00620057  RH  099%=      5-min Rain = 0
KMES 222320Z 11007KT 06/06 A2987 RMK A01 T00610057  RH  099%=      5-min Rain = 0
KMES 222325Z 11007KT 06/06 A2987 RMK A01 T00610057  RH  099%=      5-min Rain = 0
KMES 222330Z 10005KT 06/06 A2987 RMK A01 T00610057  RH  100%=      5-min Rain = 0
KMES 222335Z 10007KT 06/06 A2987 RMK A01 T00610057  RH  100%=      5-min Rain = 0
KMES 222340Z 10005KT 06/06 A2987 RMK A01 T00610057  RH  100%=      5-min Rain = 0
KMES 222345Z 10006KT 06/06 A2986 RMK A01 T00610057  RH  100%=      5-min Rain = 0
KMES 222350Z 10008KT 06/06 A2986 RMK A01 T00610057  RH  100%=      5-min Rain = 0
KMES 222355Z 10006KT 06/06 A2986 RMK A01 T00610057  RH  100%=      5-min Rain = 0
KMES 230000Z 10006KT 06/06 A2986 RMK A01 T00610057  RH  100%=      5-min Rain = 0
KMES 230005Z 10006KT 06/06 A2986 RMK A01 T00610057  RH  100%=      5-min Rain = 0
KMES 230010Z 10007KT 06/06 A2986 RMK A01 T00610057  RH  100%=      5-min Rain = 0
KMES 230015Z 09006KT 06/06 A2986 RMK A01 T00610057  RH  100%=      5-min Rain = 0
KMES 230020Z 10007KT 06/06 A2986 RMK A01 T00610057  RH  100%=      5-min Rain = 0
KMES 230025Z 10005KT 06/06 A2986 RMK A01 T00610058  RH  100%=      5-min Rain = 0
KMES 230030Z 09006KT 06/06 A2986 RMK A01 T00610058  RH  100%=      5-min Rain = 0
KMES 230035Z 09007KT 06/06 A2986 RMK A01 T00610058  RH  100%=      5-min Rain = 0
KMES 230040Z 09006KT 06/06 A2986 RMK A01 T00610058  RH  100%=      5-min Rain = 0
KMES 230045Z 10006KT 06/06 A2986 RMK A01 T00610058  RH  100%=      5-min Rain = 0
KMES 230050Z 10006KT 06/06 A2986 RMK A01 T00620058  RH  100%=      5-min Rain = 0
KMES 230055Z 10005KT 06/06 A2986 RMK A01 T00620058  RH  100%=      5-min Rain = 0
KMES 230100Z 10005KT 06/06 A2986 RMK A01 T00620058  RH  100%=      5-min Rain = 0
KMES 230105Z 11005KT 06/06 A2987 RMK A01 T00620059  RH  100%=      5-min Rain = 0
KMES 230110Z 12004KT 06/06 A2987 RMK A01 T00620059  RH  100%=      5-min Rain = 0
KMES 230115Z 11005KT 06/06 A2987 RMK A01 T00620059  RH  100%=      5-min Rain = 0
KMES 230120Z 11006KT 06/06 A2987 RMK A01 T00620059  RH  100%=      5-min Rain = 0
KMES 230125Z 10005KT 06/06 A2986 RMK A01 T00620059  RH  100%=      5-min Rain = 0
KMES 230130Z 11005KT 06/06 A2986 RMK A01 T00620059  RH  100%=      5-min Rain = 0
KMES 230135Z 11004KT 06/06 A2987 RMK A01 T00620059  RH  100%=      5-min Rain = 0
KMES 230140Z 11004KT 06/06 A2987 RMK A01 T00620059  RH  100%=      5-min Rain = 0
KMES 230145Z 10004KT 06/06 A2987 RMK A01 T00620059  RH  100%=      5-min Rain = 0
KMES 230150Z 10003KT 06/06 A2987 RMK A01 T00620059  RH  100%=      5-min Rain = 0
KMES 230155Z 09003KT 06/06 A2987 RMK A01 T00620059  RH  100%=      5-min Rain = 0
KMES 230200Z 08002KT 06/06 A2987 RMK A01 T00620059  RH  100%=      5-min Rain = 0
KMES 230205Z 08002KT 06/06 A2987 RMK A01 T00620059  RH  100%=      5-min Rain = 0
KMES 230210Z 08004KT 06/06 A2987 RMK A01 T00630059  RH  100%=      5-min Rain = 0
KMES 230215Z 08005KT 06/06 A2986 RMK A01 T00630059  RH  100%=      5-min Rain = 0
KMES 230220Z 09003KT 06/06 A2986 RMK A01 T00630059  RH  100%=      5-min Rain = 0
KMES 230225Z 08004KT 06/06 A2986 RMK A01 T00620059  RH  100%=      5-min Rain = 0
KMES 230230Z 06006KT 06/06 A2985 RMK A01 T00620059  RH  100%=      5-min Rain = 0
KMES 230235Z 08005KT 06/06 A2985 RMK A01 T00620059  RH  100%=      5-min Rain = 0
KMES 230240Z 08005KT 06/06 A2985 RMK A01 T00620059  RH  100%=      5-min Rain = 0
KMES 230245Z 09005KT 06/06 A2984 RMK A01 T00620058  RH  100%=      5-min Rain = 0
KMES 230250Z 08006KT 06/06 A2983 RMK A01 T00620058  RH  100%=      5-min Rain = 0
KMES 230255Z 09007KT 06/06 A2983 RMK A01 T00620058  RH  100%=      5-min Rain = 0
KMES 230300Z 09006KT 06/06 A2983 RMK A01 T00610058  RH  100%=      5-min Rain = 0
KMES 230305Z 09006KT 06/06 A2983 RMK A01 T00620058  RH  100%=      5-min Rain = 0
KMES 230310Z 09006KT 06/06 A2983 RMK A01 T00610058  RH  100%=      5-min Rain = 0
KMES 230315Z 09006KT 06/06 A2983 RMK A01 T00610058  RH  100%=      5-min Rain = 0
KMES 230320Z 09005KT 06/06 A2983 RMK A01 T00610058  RH  100%=      5-min Rain = 0
KMES 230325Z 08006KT 06/06 A2983 RMK A01 T00620058  RH  100%=      5-min Rain = 0
KMES 230330Z 09006KT 06/06 A2983 RMK A01 T00620058  RH  100%=      5-min Rain = 0
KMES 230335Z 09006KT 06/06 A2983 RMK A01 T00620058  RH  100%=      5-min Rain = 0
KMES 230340Z 09007KT 06/06 A2983 RMK A01 T00620058  RH  100%=      5-min Rain = 0
KMES 230345Z 09007KT 06/06 A2983 RMK A01 T00620058  RH  100%=      5-min Rain = 0
KMES 230350Z 08005KT 06/06 A2982 RMK A01 T00620058  RH  100%=      5-min Rain = 0
KMES 230355Z 09007KT 06/06 A2982 RMK A01 T00620058  RH  100%=      5-min Rain = 0
KMES 230400Z 09008KT 06/06 A2982 RMK A01 T00610058  RH  100%=      5-min Rain = 0
KMES 230405Z 09008KT 06/06 A2982 RMK A01 T00610058  RH  100%=      5-min Rain = 0
KMES 230410Z 09005KT 06/06 A2982 RMK A01 T00610058  RH  100%=      5-min Rain = 0
KMES 230415Z 09006KT 06/06 A2982 RMK A01 T00610058  RH  100%=      5-min Rain = 0
KMES 230420Z 09005G11KT 06/06 A2982 RMK A01 T00610058  RH  100%=      5-min Rain = 0
KMES 230425Z 09006KT 06/06 A2982 RMK A01 T00610058  RH  100%=      5-min Rain = 0
KMES 230430Z 09008KT 06/06 A2981 RMK A01 T00610058  RH  100%=      5-min Rain = 0
KMES 230435Z 09007KT 06/06 A2981 RMK A01 T00610058  RH  100%=      5-min Rain = 0
KMES 230440Z 09007KT 06/06 A2981 RMK A01 T00610058  RH  100%=      5-min Rain = 0
KMES 230445Z 08007KT 06/06 A298 RMK A01 T00610058  RH  100%=      5-min Rain = 0
KMES 230450Z 08006KT 06/06 A298 RMK A01 T00610058  RH  100%=      5-min Rain = 0
KMES 230455Z 09006KT 06/06 A298 RMK A01 T00610058  RH  100%=      5-min Rain = 0
KMES 230500Z 09006KT 06/06 A298 RMK A01 T00610058  RH  100%=      5-min Rain = 0
KMES 230505Z 09005KT 06/06 A298 RMK A01 T00620058  RH  100%=      5-min Rain = 0
KMES 230510Z 08006KT 06/06 A298 RMK A01 T00620058  RH  100%=      5-min Rain = 0
KMES 230515Z 08007KT 06/06 A2979 RMK A01 T00620058  RH  100%=      5-min Rain = 0
KMES 230520Z 09005KT 06/06 A2979 RMK A01 T00620058  RH  100%=      5-min Rain = 0
KMES 230525Z 09005KT 06/06 A2979 RMK A01 T00620058  RH  100%=      5-min Rain = 0
KMES 230530Z 10006KT 06/06 A298 RMK A01 T00620058  RH  100%=      5-min Rain = 0
KMES 230535Z 10006KT 06/06 A298 RMK A01 T00620058  RH  100%=      5-min Rain = 0
KMES 230540Z 11007KT 06/06 A2981 RMK A01 T00620059  RH  100%=      5-min Rain = 0
KMES 230545Z 11006KT 06/06 A298 RMK A01 T00620059  RH  100%=      5-min Rain = 0
KMES 230550Z 09005KT 06/06 A2979 RMK A01 T00620059  RH  100%=      5-min Rain = 0
KMES 230555Z 08006KT 06/06 A2978 RMK A01 T00620058  RH  100%=      5-min Rain = 0

Page generated in 0.0092 seconds.